Juniata Terrace, Pennsylvania
Current Conditions -  °F | °C
As of 5:35 AM on Tuesday 27 Jan 2015 (Local Time) from KUNV Reporting Station
Light Snow Light Snow  
Wind Chill: 14°   Ceiling: 2500
Heat Index: 20°   Visibility: 7mi
Dew Point: 16°   Wind: 5mph
Humidity: 84%   Direction: 340°NNW
Pressure: 29.79"   Gusts: NA
Location:  40.6073°N, 77.5812°W
Report Text: KUNV 271035Z AUTO 34004KT 7SM -SN BKN025 OVC033 M07/M09 A2979 RMK AO2 T10661089
Loading
Personal Weather Stations






























Interactive Weather Map New forecast layout! Learn more

10-Day Weather Forecast

Advertisements
Track Severe Weather on mobile